createdAt,value
2022-09-09T00:00:19.173Z,1.70
2022-09-09T00:02:55.593Z,1.20
2022-09-09T00:05:32.003Z,1.80
2022-09-09T00:08:04.986Z,1.63
2022-09-09T00:10:36.391Z,1.50
2022-09-09T00:13:17.410Z,1.17
2022-09-09T00:15:58.001Z,1.20
2022-09-09T00:18:31.543Z,1.70
2022-09-09T00:21:08.679Z,1.40
2022-09-09T00:23:40.659Z,1.75
2022-09-09T00:26:16.628Z,1.83
2022-09-09T00:28:52.751Z,1.20
2022-09-09T00:31:27.722Z,1.57
2022-09-09T00:34:00.854Z,1.70
2022-09-09T00:36:30.524Z,1.27
2022-09-09T00:39:02.456Z,1.60
2022-09-09T00:41:43.513Z,1.98
2022-09-09T00:44:25.918Z,1.60
2022-09-09T00:47:07.177Z,1.60
2022-09-09T00:49:47.611Z,1.30
2022-09-09T00:52:28.614Z,1.40
2022-09-09T00:55:07.077Z,1.60
2022-09-09T00:57:36.990Z,1.63
2022-09-09T01:00:24.330Z,1.25
2022-09-09T01:03:13.341Z,1.52
2022-09-09T01:05:49.151Z,1.30
2022-09-09T01:08:35.849Z,1.48
2022-09-09T01:11:04.548Z,1.23
2022-09-09T01:13:36.817Z,1.55
2022-09-09T01:16:13.450Z,1.27
2022-09-09T01:18:48.565Z,1.63
2022-09-09T01:21:30.148Z,1.27
2022-09-09T01:24:15.392Z,1.50
2022-09-09T01:27:04.648Z,1.45
2022-09-09T01:29:34.563Z,1.25
2022-09-09T01:32:05.611Z,1.70
2022-09-09T01:34:39.796Z,1.30
2022-09-09T01:37:10.773Z,1.73
2022-09-09T01:39:44.936Z,2.20
2022-09-09T01:42:18.697Z,1.77
2022-09-09T01:44:47.769Z,2.15
2022-09-09T01:47:18.752Z,1.63
2022-09-09T01:50:10.144Z,1.98
2022-09-09T01:52:38.703Z,1.65
2022-09-09T01:55:12.623Z,1.77
2022-09-09T01:57:52.560Z,1.80
2022-09-09T02:00:21.222Z,1.85
2022-09-09T02:03:03.218Z,1.67
2022-09-09T02:06:01.140Z,1.60
2022-09-09T02:08:42.390Z,1.55
2022-09-09T02:11:16.391Z,1.90
2022-09-09T02:13:53.439Z,1.73
2022-09-09T02:16:27.205Z,1.48
2022-09-09T02:19:02.884Z,1.88
2022-09-09T02:21:47.615Z,2.10
2022-09-09T02:24:18.244Z,1.73
2022-09-09T02:26:56.832Z,1.63
2022-09-09T02:29:30.999Z,1.77
2022-09-09T02:32:06.584Z,1.83
2022-09-09T02:34:42.612Z,1.63
2022-09-09T02:37:13.168Z,1.48
2022-09-09T02:39:45.864Z,1.83
2022-09-09T02:42:18.040Z,1.60
2022-09-09T02:44:48.104Z,1.58
2022-09-09T02:47:32.586Z,1.60
2022-09-09T02:50:15.098Z,2.00
2022-09-09T02:52:53.289Z,1.65
2022-09-09T02:55:30.918Z,1.80
2022-09-09T02:58:01.704Z,1.20
2022-09-09T03:00:33.490Z,2.05
2022-09-09T03:03:05.257Z,1.65
2022-09-09T03:05:35.048Z,1.40
2022-09-09T03:08:04.474Z,1.70
2022-09-09T03:10:32.894Z,1.80
2022-09-09T03:13:01.776Z,1.60
2022-09-09T03:15:39.259Z,1.93
2022-09-09T03:18:10.366Z,1.42
2022-09-09T03:20:38.825Z,1.77
2022-09-09T03:23:07.429Z,1.73
2022-09-09T03:25:36.742Z,1.20
2022-09-09T03:28:05.122Z,2.00
2022-09-09T03:30:33.647Z,1.80
2022-09-09T03:33:05.022Z,1.60
2022-09-09T03:35:35.195Z,1.85
2022-09-09T03:38:05.238Z,1.95
2022-09-09T03:40:36.329Z,1.50
2022-09-09T03:43:05.095Z,1.63
2022-09-09T03:45:34.068Z,1.73
2022-09-09T03:48:05.352Z,1.40
2022-09-09T03:50:34.374Z,1.60
2022-09-09T03:53:02.740Z,2.10
2022-09-09T03:55:31.129Z,1.52
2022-09-09T03:58:01.422Z,1.98
2022-09-09T04:00:31.655Z,2.10
2022-09-09T04:03:00.210Z,1.70
2022-09-09T04:05:30.039Z,2.08
2022-09-09T04:07:58.395Z,1.50
2022-09-09T04:10:27.834Z,1.60
2022-09-09T04:12:57.388Z,1.80
2022-09-09T04:15:25.966Z,2.05
2022-09-09T04:17:54.361Z,1.90
2022-09-09T04:20:23.204Z,1.75
2022-09-09T04:22:53.283Z,2.10
2022-09-09T04:25:23.464Z,2.03
2022-09-09T04:27:55.979Z,2.42
2022-09-09T04:30:24.651Z,1.90
2022-09-09T04:32:53.337Z,1.45
2022-09-09T04:35:22.117Z,1.70
2022-09-09T04:37:51.100Z,2.03
2022-09-09T04:40:20.884Z,1.92
2022-09-09T04:42:50.651Z,1.88
2022-09-09T04:45:19.621Z,1.83
2022-09-09T04:47:48.404Z,2.28
2022-09-09T04:50:17.057Z,1.85
2022-09-09T04:52:49.154Z,1.98
2022-09-09T04:55:18.158Z,1.95
2022-09-09T04:57:49.364Z,2.00
2022-09-09T05:00:18.532Z,1.85
2022-09-09T05:02:47.387Z,1.90
2022-09-09T05:05:16.208Z,1.90
2022-09-09T05:07:44.748Z,2.40
2022-09-09T05:10:14.464Z,2.58
2022-09-09T05:12:44.031Z,2.55
2022-09-09T05:15:14.386Z,2.20
2022-09-09T05:17:43.351Z,2.38
2022-09-09T05:20:17.182Z,2.20
2022-09-09T05:22:46.136Z,2.17
2022-09-09T05:25:15.035Z,2.03
2022-09-09T05:27:43.554Z,1.77
2022-09-09T05:30:14.273Z,1.75
2022-09-09T05:32:43.142Z,1.67
2022-09-09T05:35:12.434Z,1.70
2022-09-09T05:37:41.690Z,2.13
2022-09-09T05:40:12.220Z,2.20
2022-09-09T05:42:41.808Z,1.70
2022-09-09T05:45:11.532Z,2.30
2022-09-09T05:47:42.604Z,1.65
2022-09-09T05:50:16.126Z,1.70
2022-09-09T05:52:45.668Z,2.25
2022-09-09T05:55:14.613Z,1.20
2022-09-09T05:57:43.658Z,1.15
2022-09-09T06:00:14.219Z,1.55
2022-09-09T06:02:44.639Z,1.48
2022-09-09T06:05:16.456Z,1.30
2022-09-09T06:07:45.919Z,1.40
2022-09-09T06:10:15.642Z,1.15
2022-09-09T06:12:44.116Z,1.20
2022-09-09T06:15:12.778Z,1.90
2022-09-09T06:17:42.680Z,1.17
2022-09-09T06:20:13.989Z,1.30
2022-09-09T06:22:43.067Z,1.40
2022-09-09T06:25:12.047Z,1.30
2022-09-09T06:27:41.794Z,1.30
2022-09-09T06:30:12.327Z,1.65
2022-09-09T06:32:40.809Z,1.20
2022-09-09T06:35:09.874Z,1.27
2022-09-09T06:37:39.754Z,1.20
2022-09-09T06:40:09.524Z,1.10
2022-09-09T06:42:38.737Z,0.95
2022-09-09T06:45:22.677Z,1.00
2022-09-09T06:47:57.745Z,1.10
2022-09-09T06:50:26.753Z,0.80
2022-09-09T06:52:56.659Z,0.80
2022-09-09T06:55:25.419Z,1.30
2022-09-09T06:57:54.096Z,0.90
2022-09-09T07:00:25.793Z,1.10
2022-09-09T07:02:54.309Z,1.10
2022-09-09T07:05:23.102Z,1.00
2022-09-09T07:07:54.137Z,0.90
2022-09-09T07:10:24.721Z,0.90
2022-09-09T07:12:54.351Z,1.17
2022-09-09T07:15:26.021Z,1.20
2022-09-09T07:17:55.924Z,0.80
2022-09-09T07:20:24.378Z,1.10
2022-09-09T07:22:57.215Z,1.23
2022-09-09T07:25:29.050Z,0.80
2022-09-09T07:27:58.472Z,1.30
2022-09-09T07:30:28.106Z,1.80
2022-09-09T07:32:59.472Z,1.00
2022-09-09T07:35:28.101Z,0.88
2022-09-09T07:37:57.224Z,0.70
2022-09-09T07:40:27.426Z,0.90
2022-09-09T07:42:55.907Z,1.25
2022-09-09T07:45:24.547Z,1.00
2022-09-09T07:47:53.759Z,14.57
2022-09-09T07:50:22.817Z,1.80
2022-09-09T07:52:51.685Z,1.05
2022-09-09T07:55:20.684Z,0.77
2022-09-09T07:57:50.634Z,0.65
2022-09-09T08:00:21.483Z,0.80
2022-09-09T08:02:55.293Z,0.90
2022-09-09T08:05:24.825Z,0.90
2022-09-09T08:07:53.335Z,0.90
2022-09-09T08:10:22.364Z,0.80
2022-09-09T08:13:14.682Z,0.80
2022-09-09T08:15:44.517Z,1.23
2022-09-09T08:18:13.558Z,1.00
2022-09-09T08:20:41.992Z,0.70
2022-09-09T08:23:10.561Z,0.80
2022-09-09T08:25:38.957Z,0.90
2022-09-09T08:28:08.901Z,0.90
2022-09-09T13:00:25.248Z,0.93
2022-09-09T13:02:55.210Z,1.00
2022-09-09T13:05:26.826Z,1.40
2022-09-09T13:08:04.167Z,1.13
2022-09-09T13:10:51.647Z,1.10
2022-09-09T13:13:25.474Z,1.55
2022-09-09T13:15:57.598Z,1.65
2022-09-09T13:18:29.163Z,1.05
2022-09-09T13:20:59.196Z,1.20
2022-09-09T13:23:30.707Z,1.17
2022-09-09T13:26:01.740Z,1.02
2022-09-09T13:28:33.683Z,1.13
2022-09-09T13:31:08.153Z,1.42
2022-09-09T13:33:38.432Z,1.20
2022-09-09T13:36:09.437Z,1.13
2022-09-09T13:38:40.543Z,0.70
2022-09-09T13:41:11.378Z,0.80
2022-09-09T13:43:44.284Z,2.22
2022-09-09T13:46:29.182Z,1.00
2022-09-09T13:48:58.204Z,0.90
2022-09-09T13:51:38.148Z,1.70
2022-09-09T13:54:08.415Z,1.55
2022-09-09T13:56:37.794Z,1.80
2022-09-09T13:59:09.188Z,1.70
2022-09-09T14:01:39.013Z,2.17
2022-09-09T14:04:07.581Z,1.00
2022-09-09T14:06:38.319Z,0.80
2022-09-09T14:09:07.142Z,1.33
2022-09-09T14:11:35.599Z,1.40
2022-09-09T14:14:04.041Z,1.38
2022-09-09T14:16:32.555Z,1.40
2022-09-09T14:19:02.717Z,1.48
2022-09-09T14:21:31.134Z,1.40
2022-09-09T14:24:00.135Z,1.00
2022-09-09T14:26:30.015Z,1.00
2022-09-09T14:28:58.986Z,0.93
2022-09-09T14:31:28.003Z,1.00
2022-09-09T14:33:56.476Z,1.00
2022-09-09T14:36:26.912Z,1.48
2022-09-09T14:38:55.317Z,1.27
2022-09-09T14:41:24.516Z,1.10
2022-09-09T14:43:53.087Z,1.00
2022-09-09T14:46:22.609Z,0.85
2022-09-09T14:48:51.466Z,1.25
2022-09-09T14:51:23.314Z,1.10
2022-09-09T14:53:56.365Z,1.08
2022-09-09T21:21:37.924Z,6.00
2022-09-09T21:24:06.897Z,6.18
2022-09-09T21:26:35.626Z,6.22
2022-09-09T21:29:04.240Z,5.40
2022-09-09T21:31:33.000Z,7.72
2022-09-09T21:34:01.600Z,6.80
2022-09-09T21:36:30.017Z,6.53
2022-09-09T21:38:59.839Z,7.60
2022-09-09T21:41:28.653Z,6.75
2022-09-09T21:43:57.114Z,5.95
2022-09-09T21:46:26.758Z,5.50
2022-09-09T21:48:57.180Z,7.18
2022-09-09T21:51:26.101Z,5.90
2022-09-09T21:53:57.134Z,5.88
2022-09-09T21:56:27.007Z,6.90
2022-09-09T21:59:03.864Z,6.13
2022-09-09T22:01:34.502Z,7.25
2022-09-09T22:04:03.792Z,8.23
2022-09-09T22:06:32.375Z,7.25
2022-09-09T22:09:01.886Z,8.00
2022-09-09T22:11:31.827Z,6.47
2022-09-09T22:14:00.484Z,7.72
2022-09-09T22:16:28.915Z,6.28
2022-09-09T22:18:59.350Z,7.32
2022-09-09T22:21:30.023Z,7.50
2022-09-09T22:24:01.132Z,6.75
2022-09-09T22:26:33.190Z,7.18
2022-09-09T22:29:01.908Z,8.55
2022-09-09T22:31:30.413Z,6.30
2022-09-09T22:33:59.021Z,6.45
2022-09-09T22:36:27.604Z,7.05
2022-09-09T22:38:56.934Z,6.82
2022-09-09T22:41:26.236Z,8.15
2022-09-09T22:43:56.139Z,7.97
2022-09-09T22:46:24.604Z,7.93
2022-09-09T22:48:53.096Z,8.50
2022-09-09T22:51:21.480Z,8.48
2022-09-09T22:53:50.008Z,6.68
2022-09-09T22:56:20.840Z,7.20
2022-09-09T22:58:55.808Z,6.50
2022-09-09T23:01:27.453Z,8.63
2022-09-09T23:03:59.700Z,7.05
2022-09-09T23:06:29.674Z,6.57
2022-09-09T23:09:01.120Z,5.63
2022-09-09T23:11:31.987Z,5.63
2022-09-09T23:14:02.406Z,6.90
2022-09-09T23:16:34.520Z,6.30
2022-09-09T23:19:03.040Z,5.53
2022-09-09T23:21:32.441Z,5.57
2022-09-09T23:24:01.354Z,7.25
2022-09-09T23:26:30.108Z,7.63
2022-09-09T23:29:00.218Z,8.07
2022-09-09T23:31:31.012Z,7.13
2022-09-09T23:34:01.938Z,7.45
2022-09-09T23:36:31.089Z,7.53
2022-09-09T23:39:00.463Z,6.30
2022-09-09T23:41:29.054Z,6.88
2022-09-09T23:43:57.881Z,6.53
2022-09-09T23:46:28.698Z,5.47
2022-09-09T23:48:58.581Z,5.75
2022-09-09T23:51:30.683Z,7.00
2022-09-09T23:54:03.080Z,5.53
2022-09-09T23:56:33.968Z,5.22
2022-09-09T23:59:02.548Z,5.55
